sensor_id;sensor_type;location;lat;lon;timestamp;temperature;humidity
14531;DHT22;7352;50.866;4.366;2022-10-03T00:02:19;13.20;99.90
14531;DHT22;7352;50.866;4.366;2022-10-03T00:05:13;13.20;99.90
14531;DHT22;7352;50.866;4.366;2022-10-03T00:07:57;13.20;99.90
14531;DHT22;7352;50.866;4.366;2022-10-03T00:10:35;13.10;99.90
14531;DHT22;7352;50.866;4.366;2022-10-03T00:13:13;13.10;99.90
14531;DHT22;7352;50.866;4.366;2022-10-03T00:15:51;13.10;99.90
14531;DHT22;7352;50.866;4.366;2022-10-03T00:18:36;13.10;99.90
14531;DHT22;7352;50.866;4.366;2022-10-03T00:21:15;13.00;99.90
14531;DHT22;7352;50.866;4.366;2022-10-03T00:23:50;13.00;99.90
14531;DHT22;7352;50.866;4.366;2022-10-03T00:26:25;13.10;99.90
14531;DHT22;7352;50.866;4.366;2022-10-03T00:29:22;13.10;99.90
14531;DHT22;7352;50.866;4.366;2022-10-03T00:32:00;12.90;99.90
14531;DHT22;7352;50.866;4.366;2022-10-03T00:34:39;12.90;99.90
14531;DHT22;7352;50.866;4.366;2022-10-03T00:37:19;12.90;99.90
14531;DHT22;7352;50.866;4.366;2022-10-03T00:40:14;12.90;99.90
14531;DHT22;7352;50.866;4.366;2022-10-03T00:46:16;12.90;99.90
14531;DHT22;7352;50.866;4.366;2022-10-03T00:49:13;12.90;99.90
14531;DHT22;7352;50.866;4.366;2022-10-03T00:52:01;12.90;99.90
14531;DHT22;7352;50.866;4.366;2022-10-03T00:54:40;12.90;99.90
14531;DHT22;7352;50.866;4.366;2022-10-03T00:57:33;12.80;99.90
14531;DHT22;7352;50.866;4.366;2022-10-03T01:00:15;12.80;99.90
14531;DHT22;7352;50.866;4.366;2022-10-03T01:02:48;12.60;99.90
14531;DHT22;7352;50.866;4.366;2022-10-03T01:05:30;12.60;99.90
14531;DHT22;7352;50.866;4.366;2022-10-03T01:08:31;12.60;99.90
14531;DHT22;7352;50.866;4.366;2022-10-03T01:11:08;12.60;99.90
14531;DHT22;7352;50.866;4.366;2022-10-03T01:13:49;12.60;99.90
14531;DHT22;7352;50.866;4.366;2022-10-03T01:16:28;12.70;99.90
14531;DHT22;7352;50.866;4.366;2022-10-03T01:19:06;12.60;99.90
14531;DHT22;7352;50.866;4.366;2022-10-03T01:21:42;12.60;99.90
14531;DHT22;7352;50.866;4.366;2022-10-03T01:24:36;12.60;99.90
14531;DHT22;7352;50.866;4.366;2022-10-03T01:27:11;12.60;99.90
14531;DHT22;7352;50.866;4.366;2022-10-03T01:29:48;12.70;99.90
14531;DHT22;7352;50.866;4.366;2022-10-03T01:32:42;12.70;99.90
14531;DHT22;7352;50.866;4.366;2022-10-03T01:35:28;12.70;99.90
14531;DHT22;7352;50.866;4.366;2022-10-03T01:38:07;12.60;99.90
14531;DHT22;7352;50.866;4.366;2022-10-03T01:40:38;12.50;99.90
14531;DHT22;7352;50.866;4.366;2022-10-03T01:43:16;12.60;99.90
14531;DHT22;7352;50.866;4.366;2022-10-03T01:45:59;12.60;99.90
14531;DHT22;7352;50.866;4.366;2022-10-03T01:48:36;12.50;99.90
14531;DHT22;7352;50.866;4.366;2022-10-03T01:51:09;12.50;99.90
14531;DHT22;7352;50.866;4.366;2022-10-03T01:53:47;12.40;99.90
14531;DHT22;7352;50.866;4.366;2022-10-03T01:56:25;12.40;99.90
14531;DHT22;7352;50.866;4.366;2022-10-03T01:58:58;12.50;99.90
14531;DHT22;7352;50.866;4.366;2022-10-03T02:01:34;12.50;99.90
14531;DHT22;7352;50.866;4.366;2022-10-03T02:04:10;12.50;99.90
14531;DHT22;7352;50.866;4.366;2022-10-03T02:06:43;12.60;99.90
14531;DHT22;7352;50.866;4.366;2022-10-03T02:09:22;12.70;99.90
14531;DHT22;7352;50.866;4.366;2022-10-03T02:12:03;12.70;99.90
14531;DHT22;7352;50.866;4.366;2022-10-03T02:14:40;12.50;99.90
14531;DHT22;7352;50.866;4.366;2022-10-03T02:17:23;12.40;99.90
14531;DHT22;7352;50.866;4.366;2022-10-03T02:19:59;12.40;99.90
14531;DHT22;7352;50.866;4.366;2022-10-03T02:22:30;12.40;99.90
14531;DHT22;7352;50.866;4.366;2022-10-03T02:25:08;12.40;99.90
14531;DHT22;7352;50.866;4.366;2022-10-03T02:28:03;12.40;99.90
14531;DHT22;7352;50.866;4.366;2022-10-03T02:30:45;12.40;99.90
14531;DHT22;7352;50.866;4.366;2022-10-03T02:33:41;12.40;99.90
14531;DHT22;7352;50.866;4.366;2022-10-03T02:36:49;12.40;99.90
14531;DHT22;7352;50.866;4.366;2022-10-03T02:39:38;12.50;99.90
14531;DHT22;7352;50.866;4.366;2022-10-03T02:42:46;12.40;99.90
14531;DHT22;7352;50.866;4.366;2022-10-03T02:45:37;12.30;99.90
14531;DHT22;7352;50.866;4.366;2022-10-03T02:48:40;12.20;99.90
14531;DHT22;7352;50.866;4.366;2022-10-03T02:54:54;12.10;99.90
14531;DHT22;7352;50.866;4.366;2022-10-03T02:57:47;12.10;99.90
14531;DHT22;7352;50.866;4.366;2022-10-03T03:00:20;12.10;99.90
14531;DHT22;7352;50.866;4.366;2022-10-03T03:03:09;12.10;99.90
14531;DHT22;7352;50.866;4.366;2022-10-03T03:06:15;12.10;99.90
14531;DHT22;7352;50.866;4.366;2022-10-03T03:18:31;12.00;99.90
14531;DHT22;7352;50.866;4.366;2022-10-03T03:21:09;12.00;99.90
14531;DHT22;7352;50.866;4.366;2022-10-03T03:24:13;12.10;99.90
14531;DHT22;7352;50.866;4.366;2022-10-03T03:29:44;12.00;99.90
14531;DHT22;7352;50.866;4.366;2022-10-03T03:32:20;12.10;99.90
14531;DHT22;7352;50.866;4.366;2022-10-03T03:34:56;12.00;99.90
14531;DHT22;7352;50.866;4.366;2022-10-03T03:37:30;11.90;99.90
14531;DHT22;7352;50.866;4.366;2022-10-03T03:40:21;12.00;99.90
14531;DHT22;7352;50.866;4.366;2022-10-03T03:43:07;11.90;99.90
14531;DHT22;7352;50.866;4.366;2022-10-03T03:45:58;11.90;99.90
14531;DHT22;7352;50.866;4.366;2022-10-03T03:48:49;12.00;99.90
14531;DHT22;7352;50.866;4.366;2022-10-03T03:51:26;11.90;99.90
14531;DHT22;7352;50.866;4.366;2022-10-03T03:54:23;11.90;99.90
14531;DHT22;7352;50.866;4.366;2022-10-03T03:57:19;11.80;99.90
14531;DHT22;7352;50.866;4.366;2022-10-03T04:00:12;11.80;99.90
14531;DHT22;7352;50.866;4.366;2022-10-03T04:02:52;11.90;99.90
14531;DHT22;7352;50.866;4.366;2022-10-03T04:05:39;11.70;99.90
14531;DHT22;7352;50.866;4.366;2022-10-03T04:08:21;11.70;99.90
14531;DHT22;7352;50.866;4.366;2022-10-03T04:11:00;11.70;99.90
14531;DHT22;7352;50.866;4.366;2022-10-03T04:13:38;11.70;99.90
14531;DHT22;7352;50.866;4.366;2022-10-03T04:16:18;11.70;99.90
14531;DHT22;7352;50.866;4.366;2022-10-03T04:19:15;11.70;99.90
14531;DHT22;7352;50.866;4.366;2022-10-03T04:22:07;11.80;99.90
14531;DHT22;7352;50.866;4.366;2022-10-03T04:25:00;11.70;99.90
14531;DHT22;7352;50.866;4.366;2022-10-03T04:27:53;11.70;99.90
14531;DHT22;7352;50.866;4.366;2022-10-03T04:30:33;11.70;99.90
14531;DHT22;7352;50.866;4.366;2022-10-03T04:33:17;11.70;99.90
14531;DHT22;7352;50.866;4.366;2022-10-03T04:38:53;11.70;99.90
14531;DHT22;7352;50.866;4.366;2022-10-03T04:41:30;11.60;99.90
14531;DHT22;7352;50.866;4.366;2022-10-03T04:44:07;11.60;99.90
14531;DHT22;7352;50.866;4.366;2022-10-03T04:46:43;11.70;99.90
14531;DHT22;7352;50.866;4.366;2022-10-03T04:49:21;11.60;99.90
14531;DHT22;7352;50.866;4.366;2022-10-03T04:51:53;11.60;99.90
14531;DHT22;7352;50.866;4.366;2022-10-03T04:54:27;11.70;99.90
14531;DHT22;7352;50.866;4.366;2022-10-03T04:57:01;11.60;99.90
14531;DHT22;7352;50.866;4.366;2022-10-03T04:59:39;11.60;99.90
14531;DHT22;7352;50.866;4.366;2022-10-03T05:02:18;11.60;99.90
14531;DHT22;7352;50.866;4.366;2022-10-03T05:04:59;11.60;99.90
14531;DHT22;7352;50.866;4.366;2022-10-03T05:07:36;11.60;99.90
14531;DHT22;7352;50.866;4.366;2022-10-03T05:10:22;11.60;99.90
14531;DHT22;7352;50.866;4.366;2022-10-03T05:12:59;11.80;99.90
14531;DHT22;7352;50.866;4.366;2022-10-03T05:15:32;11.60;99.90
14531;DHT22;7352;50.866;4.366;2022-10-03T05:18:12;11.50;99.90
14531;DHT22;7352;50.866;4.366;2022-10-03T05:20:54;11.50;99.90
14531;DHT22;7352;50.866;4.366;2022-10-03T05:23:38;11.50;99.90
14531;DHT22;7352;50.866;4.366;2022-10-03T05:26:17;11.50;99.90
14531;DHT22;7352;50.866;4.366;2022-10-03T05:28:56;11.50;99.90
14531;DHT22;7352;50.866;4.366;2022-10-03T05:31:34;11.50;99.90
14531;DHT22;7352;50.866;4.366;2022-10-03T05:34:20;11.50;99.90
14531;DHT22;7352;50.866;4.366;2022-10-03T05:37:01;11.60;99.90
14531;DHT22;7352;50.866;4.366;2022-10-03T05:39:41;11.60;99.90
14531;DHT22;7352;50.866;4.366;2022-10-03T05:42:33;11.60;99.90
14531;DHT22;7352;50.866;4.366;2022-10-03T05:45:04;11.50;99.90
14531;DHT22;7352;50.866;4.366;2022-10-03T05:47:46;11.40;99.90
14531;DHT22;7352;50.866;4.366;2022-10-03T05:50:46;11.40;99.90
14531;DHT22;7352;50.866;4.366;2022-10-03T05:57:03;11.60;99.90
14531;DHT22;7352;50.866;4.366;2022-10-03T06:00:01;11.60;99.90
14531;DHT22;7352;50.866;4.366;2022-10-03T06:05:34;11.70;99.90
14531;DHT22;7352;50.866;4.366;2022-10-03T06:11:27;11.50;99.90
14531;DHT22;7352;50.866;4.366;2022-10-03T06:17:27;11.50;99.90
14531;DHT22;7352;50.866;4.366;2022-10-03T06:20:13;11.60;99.90
14531;DHT22;7352;50.866;4.366;2022-10-03T06:22:59;11.50;99.90
14531;DHT22;7352;50.866;4.366;2022-10-03T06:26:18;11.60;99.90
14531;DHT22;7352;50.866;4.366;2022-10-03T06:29:14;11.60;99.90
14531;DHT22;7352;50.866;4.366;2022-10-03T06:32:15;11.50;99.90
14531;DHT22;7352;50.866;4.366;2022-10-03T06:35:05;11.50;99.90
14531;DHT22;7352;50.866;4.366;2022-10-03T06:38:07;11.50;99.90
14531;DHT22;7352;50.866;4.366;2022-10-03T06:41:12;11.70;99.90
14531;DHT22;7352;50.866;4.366;2022-10-03T06:44:05;11.70;99.90
14531;DHT22;7352;50.866;4.366;2022-10-03T06:46:58;11.70;99.90
14531;DHT22;7352;50.866;4.366;2022-10-03T06:49:57;11.80;99.90
14531;DHT22;7352;50.866;4.366;2022-10-03T06:52:50;11.70;99.90
14531;DHT22;7352;50.866;4.366;2022-10-03T06:55:53;11.80;99.90
14531;DHT22;7352;50.866;4.366;2022-10-03T06:58:46;11.90;99.90
14531;DHT22;7352;50.866;4.366;2022-10-03T07:04:45;12.00;99.90
14531;DHT22;7352;50.866;4.366;2022-10-03T07:07:51;12.10;99.90
14531;DHT22;7352;50.866;4.366;2022-10-03T07:10:38;12.30;99.90
14531;DHT22;7352;50.866;4.366;2022-10-03T07:13:47;12.40;99.90
14531;DHT22;7352;50.866;4.366;2022-10-03T07:16:47;12.30;99.90
14531;DHT22;7352;50.866;4.366;2022-10-03T07:19:30;12.30;99.90
14531;DHT22;7352;50.866;4.366;2022-10-03T07:31:20;12.40;99.90
14531;DHT22;7352;50.866;4.366;2022-10-03T07:37:08;12.70;99.90
14531;DHT22;7352;50.866;4.366;2022-10-03T07:46:37;12.70;99.90
14531;DHT22;7352;50.866;4.366;2022-10-03T07:49:25;12.70;99.90
14531;DHT22;7352;50.866;4.366;2022-10-03T07:55:26;12.90;99.90
14531;DHT22;7352;50.866;4.366;2022-10-03T07:58:30;12.80;99.90
14531;DHT22;7352;50.866;4.366;2022-10-03T08:01:16;12.90;99.90
14531;DHT22;7352;50.866;4.366;2022-10-03T08:06:47;13.10;99.90
14531;DHT22;7352;50.866;4.366;2022-10-03T08:09:50;13.20;99.90
14531;DHT22;7352;50.866;4.366;2022-10-03T08:15:29;13.30;99.90
14531;DHT22;7352;50.866;4.366;2022-10-03T08:18:30;13.30;99.90
14531;DHT22;7352;50.866;4.366;2022-10-03T08:21:00;13.50;99.90
14531;DHT22;7352;50.866;4.366;2022-10-03T08:23:53;13.60;99.90
14531;DHT22;7352;50.866;4.366;2022-10-03T08:26:45;13.40;99.90
14531;DHT22;7352;50.866;4.366;2022-10-03T08:29:32;13.50;99.90
14531;DHT22;7352;50.866;4.366;2022-10-03T08:41:48;13.80;99.90
14531;DHT22;7352;50.866;4.366;2022-10-03T08:45:00;13.60;99.90
14531;DHT22;7352;50.866;4.366;2022-10-03T08:50:55;13.80;99.90
14531;DHT22;7352;50.866;4.366;2022-10-03T08:56:47;13.90;99.90
14531;DHT22;7352;50.866;4.366;2022-10-03T09:00:01;14.00;99.90
14531;DHT22;7352;50.866;4.366;2022-10-03T09:02:58;14.20;99.90
14531;DHT22;7352;50.866;4.366;2022-10-03T09:05:56;14.40;99.90
14531;DHT22;7352;50.866;4.366;2022-10-03T09:09:02;14.50;99.90
14531;DHT22;7352;50.866;4.366;2022-10-03T09:15:44;14.70;99.90
14531;DHT22;7352;50.866;4.366;2022-10-03T09:18:38;14.80;99.90
14531;DHT22;7352;50.866;4.366;2022-10-03T09:33:18;15.50;99.90
14531;DHT22;7352;50.866;4.366;2022-10-03T09:36:10;15.60;99.90
14531;DHT22;7352;50.866;4.366;2022-10-03T09:39:20;15.80;99.90
14531;DHT22;7352;50.866;4.366;2022-10-03T09:42:24;15.90;99.90
14531;DHT22;7352;50.866;4.366;2022-10-03T09:48:27;16.10;99.90
14531;DHT22;7352;50.866;4.366;2022-10-03T09:54:28;16.20;99.90
14531;DHT22;7352;50.866;4.366;2022-10-03T09:57:23;16.30;99.90
14531;DHT22;7352;50.866;4.366;2022-10-03T10:00:19;16.20;99.90
14531;DHT22;7352;50.866;4.366;2022-10-03T10:06:00;16.40;99.90
14531;DHT22;7352;50.866;4.366;2022-10-03T10:11:30;16.70;99.90
14531;DHT22;7352;50.866;4.366;2022-10-03T10:14:21;16.90;99.90
14531;DHT22;7352;50.866;4.366;2022-10-03T10:17:12;16.80;99.90
14531;DHT22;7352;50.866;4.366;2022-10-03T10:19:57;16.80;99.90
14531;DHT22;7352;50.866;4.366;2022-10-03T10:25:37;16.90;99.90
14531;DHT22;7352;50.866;4.366;2022-10-03T10:28:39;16.80;99.90
14531;DHT22;7352;50.866;4.366;2022-10-03T10:34:49;17.00;99.90
14531;DHT22;7352;50.866;4.366;2022-10-03T10:40:51;17.20;99.90
14531;DHT22;7352;50.866;4.366;2022-10-03T10:47:06;17.50;99.90
14531;DHT22;7352;50.866;4.366;2022-10-03T10:50:01;17.70;99.90
14531;DHT22;7352;50.866;4.366;2022-10-03T10:56:13;17.90;99.90
14531;DHT22;7352;50.866;4.366;2022-10-03T11:05:47;18.00;99.90
14531;DHT22;7352;50.866;4.366;2022-10-03T11:09:08;17.80;99.90
14531;DHT22;7352;50.866;4.366;2022-10-03T11:12:08;17.80;99.90
14531;DHT22;7352;50.866;4.366;2022-10-03T11:18:21;18.10;99.90
14531;DHT22;7352;50.866;4.366;2022-10-03T11:30:20;17.70;99.90
14531;DHT22;7352;50.866;4.366;2022-10-03T11:33:26;17.90;99.90
14531;DHT22;7352;50.866;4.366;2022-10-03T11:39:22;18.20;99.90
14531;DHT22;7352;50.866;4.366;2022-10-03T11:41:55;18.20;99.90
14531;DHT22;7352;50.866;4.366;2022-10-03T11:44:27;18.20;99.90
14531;DHT22;7352;50.866;4.366;2022-10-03T11:47:11;18.40;99.90
14531;DHT22;7352;50.866;4.366;2022-10-03T11:50:01;18.70;99.90
14531;DHT22;7352;50.866;4.366;2022-10-03T11:52:36;18.80;99.90
14531;DHT22;7352;50.866;4.366;2022-10-03T11:55:23;18.80;99.90
14531;DHT22;7352;50.866;4.366;2022-10-03T11:58:02;18.90;99.90
14531;DHT22;7352;50.866;4.366;2022-10-03T12:00:37;18.90;99.90
14531;DHT22;7352;50.866;4.366;2022-10-03T12:03:11;19.00;99.90
14531;DHT22;7352;50.866;4.366;2022-10-03T12:05:52;19.00;99.90
14531;DHT22;7352;50.866;4.366;2022-10-03T12:08:41;18.90;99.90
14531;DHT22;7352;50.866;4.366;2022-10-03T12:11:26;18.80;99.90
14531;DHT22;7352;50.866;4.366;2022-10-03T12:14:11;18.60;99.90
14531;DHT22;7352;50.866;4.366;2022-10-03T12:16:59;18.60;99.90
14531;DHT22;7352;50.866;4.366;2022-10-03T12:19:33;18.60;99.90
14531;DHT22;7352;50.866;4.366;2022-10-03T12:22:08;18.70;99.90
14531;DHT22;7352;50.866;4.366;2022-10-03T12:24:40;18.70;99.90
14531;DHT22;7352;50.866;4.366;2022-10-03T12:27:19;18.50;99.90
14531;DHT22;7352;50.866;4.366;2022-10-03T12:29:54;18.60;99.90
14531;DHT22;7352;50.866;4.366;2022-10-03T12:32:31;18.70;99.90
14531;DHT22;7352;50.866;4.366;2022-10-03T12:35:16;18.70;99.90
14531;DHT22;7352;50.866;4.366;2022-10-03T12:38:01;18.80;99.90
14531;DHT22;7352;50.866;4.366;2022-10-03T12:40:37;18.80;99.90
14531;DHT22;7352;50.866;4.366;2022-10-03T12:43:20;18.90;99.90
14531;DHT22;7352;50.866;4.366;2022-10-03T12:45:55;18.90;99.90
14531;DHT22;7352;50.866;4.366;2022-10-03T12:48:38;19.00;99.90
14531;DHT22;7352;50.866;4.366;2022-10-03T12:51:20;19.00;99.90
14531;DHT22;7352;50.866;4.366;2022-10-03T12:53:56;18.80;99.90
14531;DHT22;7352;50.866;4.366;2022-10-03T12:56:35;18.90;99.90
14531;DHT22;7352;50.866;4.366;2022-10-03T12:59:30;18.90;99.90
14531;DHT22;7352;50.866;4.366;2022-10-03T13:02:22;18.90;99.90
14531;DHT22;7352;50.866;4.366;2022-10-03T13:05:28;18.90;99.90
14531;DHT22;7352;50.866;4.366;2022-10-03T13:08:19;19.10;99.90
14531;DHT22;7352;50.866;4.366;2022-10-03T13:11:04;19.20;99.90
14531;DHT22;7352;50.866;4.366;2022-10-03T13:13:48;19.30;99.90
14531;DHT22;7352;50.866;4.366;2022-10-03T13:16:27;19.50;99.90
14531;DHT22;7352;50.866;4.366;2022-10-03T13:19:01;19.50;99.90
14531;DHT22;7352;50.866;4.366;2022-10-03T13:21:49;19.60;99.90
14531;DHT22;7352;50.866;4.366;2022-10-03T13:24:31;19.80;99.90
14531;DHT22;7352;50.866;4.366;2022-10-03T13:27:10;19.90;99.90
14531;DHT22;7352;50.866;4.366;2022-10-03T13:29:44;20.00;99.90
14531;DHT22;7352;50.866;4.366;2022-10-03T13:32:25;20.20;99.90
14531;DHT22;7352;50.866;4.366;2022-10-03T13:35:00;20.30;99.90
14531;DHT22;7352;50.866;4.366;2022-10-03T13:41:16;20.60;99.90
14531;DHT22;7352;50.866;4.366;2022-10-03T13:43:53;20.70;99.90
14531;DHT22;7352;50.866;4.366;2022-10-03T13:46:28;20.70;99.90
14531;DHT22;7352;50.866;4.366;2022-10-03T13:48:59;20.80;99.90
14531;DHT22;7352;50.866;4.366;2022-10-03T13:51:35;20.90;99.40
14531;DHT22;7352;50.866;4.366;2022-10-03T13:54:15;20.80;98.70
14531;DHT22;7352;50.866;4.366;2022-10-03T13:56:54;20.60;98.60
14531;DHT22;7352;50.866;4.366;2022-10-03T13:59:50;20.30;99.60
14531;DHT22;7352;50.866;4.366;2022-10-03T14:02:39;20.30;99.90
14531;DHT22;7352;50.866;4.366;2022-10-03T14:05:35;20.40;99.20
14531;DHT22;7352;50.866;4.366;2022-10-03T14:08:10;20.10;98.40
14531;DHT22;7352;50.866;4.366;2022-10-03T14:11:08;20.10;99.30
14531;DHT22;7352;50.866;4.366;2022-10-03T14:13:45;20.20;99.30
14531;DHT22;7352;50.866;4.366;2022-10-03T14:16:21;20.10;99.70
14531;DHT22;7352;50.866;4.366;2022-10-03T14:18:56;20.10;99.30
14531;DHT22;7352;50.866;4.366;2022-10-03T14:21:39;20.10;99.30
14531;DHT22;7352;50.866;4.366;2022-10-03T14:24:23;20.20;99.30
14531;DHT22;7352;50.866;4.366;2022-10-03T14:26:58;20.10;98.70
14531;DHT22;7352;50.866;4.366;2022-10-03T14:29:35;20.00;98.40
14531;DHT22;7352;50.866;4.366;2022-10-03T14:32:08;20.10;98.00
14531;DHT22;7352;50.866;4.366;2022-10-03T14:34:45;20.00;98.00
14531;DHT22;7352;50.866;4.366;2022-10-03T14:37:24;20.00;97.90
14531;DHT22;7352;50.866;4.366;2022-10-03T14:40:07;20.00;98.70
14531;DHT22;7352;50.866;4.366;2022-10-03T14:42:59;20.00;99.30
14531;DHT22;7352;50.866;4.366;2022-10-03T14:45:32;20.00;99.30
14531;DHT22;7352;50.866;4.366;2022-10-03T14:48:05;20.00;99.40
14531;DHT22;7352;50.866;4.366;2022-10-03T14:50:38;20.10;98.50
14531;DHT22;7352;50.866;4.366;2022-10-03T14:53:16;20.00;98.30
14531;DHT22;7352;50.866;4.366;2022-10-03T14:55:51;20.20;98.60
14531;DHT22;7352;50.866;4.366;2022-10-03T14:58:23;20.20;99.30
14531;DHT22;7352;50.866;4.366;2022-10-03T15:01:01;20.20;98.80
14531;DHT22;7352;50.866;4.366;2022-10-03T15:03:31;20.10;98.70
14531;DHT22;7352;50.866;4.366;2022-10-03T15:06:31;20.10;99.30
14531;DHT22;7352;50.866;4.366;2022-10-03T15:09:02;20.10;99.30
14531;DHT22;7352;50.866;4.366;2022-10-03T15:11:32;20.20;99.60
14531;DHT22;7352;50.866;4.366;2022-10-03T15:14:04;20.60;99.50
14531;DHT22;7352;50.866;4.366;2022-10-03T15:16:34;20.50;98.50
14531;DHT22;7352;50.866;4.366;2022-10-03T15:19:08;20.40;98.60
14531;DHT22;7352;50.866;4.366;2022-10-03T15:21:41;20.30;98.40
14531;DHT22;7352;50.866;4.366;2022-10-03T15:24:18;20.10;99.30
14531;DHT22;7352;50.866;4.366;2022-10-03T15:26:53;20.10;99.30
14531;DHT22;7352;50.866;4.366;2022-10-03T15:29:22;19.90;99.90
14531;DHT22;7352;50.866;4.366;2022-10-03T15:31:50;19.70;99.90
14531;DHT22;7352;50.866;4.366;2022-10-03T15:34:22;19.60;99.90
14531;DHT22;7352;50.866;4.366;2022-10-03T15:36:53;19.60;99.90
14531;DHT22;7352;50.866;4.366;2022-10-03T15:39:27;19.40;99.90
14531;DHT22;7352;50.866;4.366;2022-10-03T15:42:01;19.50;99.90
14531;DHT22;7352;50.866;4.366;2022-10-03T15:44:32;19.40;99.90
14531;DHT22;7352;50.866;4.366;2022-10-03T15:47:06;19.30;99.90
14531;DHT22;7352;50.866;4.366;2022-10-03T15:49:38;19.20;99.90
14531;DHT22;7352;50.866;4.366;2022-10-03T15:52:12;19.30;99.90
14531;DHT22;7352;50.866;4.366;2022-10-03T15:54:51;19.30;99.90
14531;DHT22;7352;50.866;4.366;2022-10-03T15:57:24;19.20;99.90
14531;DHT22;7352;50.866;4.366;2022-10-03T15:59:54;18.90;99.90
14531;DHT22;7352;50.866;4.366;2022-10-03T16:02:29;18.80;99.90
14531;DHT22;7352;50.866;4.366;2022-10-03T16:04:57;18.80;99.90
14531;DHT22;7352;50.866;4.366;2022-10-03T16:07:32;18.70;99.90
14531;DHT22;7352;50.866;4.366;2022-10-03T16:10:12;18.60;99.90
14531;DHT22;7352;50.866;4.366;2022-10-03T16:12:58;18.60;99.90
14531;DHT22;7352;50.866;4.366;2022-10-03T16:15:37;18.50;99.90
14531;DHT22;7352;50.866;4.366;2022-10-03T16:18:11;18.50;99.90
14531;DHT22;7352;50.866;4.366;2022-10-03T16:20:59;18.40;99.90
14531;DHT22;7352;50.866;4.366;2022-10-03T16:23:29;18.20;99.90
14531;DHT22;7352;50.866;4.366;2022-10-03T16:26:02;18.20;99.90
14531;DHT22;7352;50.866;4.366;2022-10-03T16:28:33;18.20;99.90
14531;DHT22;7352;50.866;4.366;2022-10-03T16:31:05;18.20;99.90
14531;DHT22;7352;50.866;4.366;2022-10-03T16:33:39;18.30;99.90
14531;DHT22;7352;50.866;4.366;2022-10-03T16:36:08;18.30;99.90
14531;DHT22;7352;50.866;4.366;2022-10-03T16:38:38;18.20;99.90
14531;DHT22;7352;50.866;4.366;2022-10-03T16:41:16;18.10;99.90
14531;DHT22;7352;50.866;4.366;2022-10-03T16:43:54;18.30;99.90
14531;DHT22;7352;50.866;4.366;2022-10-03T16:46:23;18.20;99.90
14531;DHT22;7352;50.866;4.366;2022-10-03T16:48:54;18.10;99.90
14531;DHT22;7352;50.866;4.366;2022-10-03T16:51:41;18.00;99.90
14531;DHT22;7352;50.866;4.366;2022-10-03T16:54:11;17.80;99.90
14531;DHT22;7352;50.866;4.366;2022-10-03T16:56:47;17.70;99.90
14531;DHT22;7352;50.866;4.366;2022-10-03T16:59:18;17.60;99.90
14531;DHT22;7352;50.866;4.366;2022-10-03T17:01:49;17.60;99.90
14531;DHT22;7352;50.866;4.366;2022-10-03T17:04:21;17.60;99.90
14531;DHT22;7352;50.866;4.366;2022-10-03T17:06:50;17.50;99.90
14531;DHT22;7352;50.866;4.366;2022-10-03T17:09:24;17.50;99.90
14531;DHT22;7352;50.866;4.366;2022-10-03T17:11:57;17.50;99.90
14531;DHT22;7352;50.866;4.366;2022-10-03T17:14:28;17.20;99.90
14531;DHT22;7352;50.866;4.366;2022-10-03T17:17:01;17.10;99.90
14531;DHT22;7352;50.866;4.366;2022-10-03T17:19:34;17.10;99.90
14531;DHT22;7352;50.866;4.366;2022-10-03T17:22:09;17.00;99.90
14531;DHT22;7352;50.866;4.366;2022-10-03T17:24:44;17.00;99.90
14531;DHT22;7352;50.866;4.366;2022-10-03T17:27:20;17.00;99.90
14531;DHT22;7352;50.866;4.366;2022-10-03T17:29:54;17.00;99.90
14531;DHT22;7352;50.866;4.366;2022-10-03T17:32:26;17.00;99.90
14531;DHT22;7352;50.866;4.366;2022-10-03T17:34:59;16.90;99.90
14531;DHT22;7352;50.866;4.366;2022-10-03T17:38:07;16.90;99.90
14531;DHT22;7352;50.866;4.366;2022-10-03T17:41:00;16.80;99.90
14531;DHT22;7352;50.866;4.366;2022-10-03T17:43:34;16.60;99.90
14531;DHT22;7352;50.866;4.366;2022-10-03T17:46:11;16.50;99.90
14531;DHT22;7352;50.866;4.366;2022-10-03T17:48:44;16.50;99.90
14531;DHT22;7352;50.866;4.366;2022-10-03T17:51:29;16.50;99.90
14531;DHT22;7352;50.866;4.366;2022-10-03T17:54:01;16.40;99.90
14531;DHT22;7352;50.866;4.366;2022-10-03T17:56:31;16.30;99.90
14531;DHT22;7352;50.866;4.366;2022-10-03T17:59:05;16.40;99.90
14531;DHT22;7352;50.866;4.366;2022-10-03T18:01:40;16.30;99.90
14531;DHT22;7352;50.866;4.366;2022-10-03T18:04:15;16.30;99.90
14531;DHT22;7352;50.866;4.366;2022-10-03T18:06:48;16.20;99.90
14531;DHT22;7352;50.866;4.366;2022-10-03T18:09:29;16.20;99.90
14531;DHT22;7352;50.866;4.366;2022-10-03T18:12:21;16.40;99.90
14531;DHT22;7352;50.866;4.366;2022-10-03T18:21:08;16.10;99.90
14531;DHT22;7352;50.866;4.366;2022-10-03T18:23:46;16.00;99.90
14531;DHT22;7352;50.866;4.366;2022-10-03T18:26:24;16.10;99.90
14531;DHT22;7352;50.866;4.366;2022-10-03T18:29:02;16.10;99.90
14531;DHT22;7352;50.866;4.366;2022-10-03T18:31:37;16.00;99.90
14531;DHT22;7352;50.866;4.366;2022-10-03T18:34:08;16.20;99.90
14531;DHT22;7352;50.866;4.366;2022-10-03T18:36:42;16.00;99.90
14531;DHT22;7352;50.866;4.366;2022-10-03T18:39:15;16.20;99.90
14531;DHT22;7352;50.866;4.366;2022-10-03T18:41:44;16.00;99.90
14531;DHT22;7352;50.866;4.366;2022-10-03T18:44:14;16.00;99.90
14531;DHT22;7352;50.866;4.366;2022-10-03T18:46:43;16.20;99.90
14531;DHT22;7352;50.866;4.366;2022-10-03T18:49:21;15.90;99.90
14531;DHT22;7352;50.866;4.366;2022-10-03T18:51:54;15.90;99.90
14531;DHT22;7352;50.866;4.366;2022-10-03T18:54:32;15.80;99.90
14531;DHT22;7352;50.866;4.366;2022-10-03T18:57:06;15.50;99.90
14531;DHT22;7352;50.866;4.366;2022-10-03T18:59:44;15.50;99.90
14531;DHT22;7352;50.866;4.366;2022-10-03T19:02:23;15.10;99.90
14531;DHT22;7352;50.866;4.366;2022-10-03T19:04:55;15.20;99.90
14531;DHT22;7352;50.866;4.366;2022-10-03T19:07:27;15.20;99.90
14531;DHT22;7352;50.866;4.366;2022-10-03T19:13:02;15.00;99.90
14531;DHT22;7352;50.866;4.366;2022-10-03T19:15:40;15.00;99.90
14531;DHT22;7352;50.866;4.366;2022-10-03T19:18:19;15.20;99.90
14531;DHT22;7352;50.866;4.366;2022-10-03T19:20:53;15.00;99.90
14531;DHT22;7352;50.866;4.366;2022-10-03T19:23:24;14.90;99.90
14531;DHT22;7352;50.866;4.366;2022-10-03T19:25:56;14.80;99.90
14531;DHT22;7352;50.866;4.366;2022-10-03T19:28:28;14.80;99.90
14531;DHT22;7352;50.866;4.366;2022-10-03T19:30:58;14.90;99.90
14531;DHT22;7352;50.866;4.366;2022-10-03T19:33:29;14.70;99.90
14531;DHT22;7352;50.866;4.366;2022-10-03T19:36:02;14.70;99.90
14531;DHT22;7352;50.866;4.366;2022-10-03T19:38:34;14.70;99.90
14531;DHT22;7352;50.866;4.366;2022-10-03T19:41:13;14.50;99.90
14531;DHT22;7352;50.866;4.366;2022-10-03T19:43:44;14.40;99.90
14531;DHT22;7352;50.866;4.366;2022-10-03T19:46:32;14.60;99.90
14531;DHT22;7352;50.866;4.366;2022-10-03T19:49:15;14.60;99.90
14531;DHT22;7352;50.866;4.366;2022-10-03T19:51:48;14.50;99.90
14531;DHT22;7352;50.866;4.366;2022-10-03T19:54:29;14.60;99.90
14531;DHT22;7352;50.866;4.366;2022-10-03T19:56:57;14.50;99.90
14531;DHT22;7352;50.866;4.366;2022-10-03T19:59:36;14.50;99.90
14531;DHT22;7352;50.866;4.366;2022-10-03T20:02:10;14.40;99.90